sensor_id;sensor_type;location;lat;lon;timestamp;pressure;altitude;pressure_sealevel;temperature;humidity
77159;BME280;66129;45.890;13.714;2024-02-16T00:00:07;101633.88;;;4.36;100.00
77159;BME280;66129;45.890;13.714;2024-02-16T00:02:32;101629.06;;;4.41;100.00
77159;BME280;66129;45.890;13.714;2024-02-16T00:04:58;101631.50;;;4.39;100.00
77159;BME280;66129;45.890;13.714;2024-02-16T00:07:24;101624.59;;;4.37;100.00
77159;BME280;66129;45.890;13.714;2024-02-16T00:09:49;101621.97;;;4.35;100.00
77159;BME280;66129;45.890;13.714;2024-02-16T00:12:15;101646.25;;;4.45;100.00
77159;BME280;66129;45.890;13.714;2024-02-16T00:14:42;101641.75;;;4.41;100.00
77159;BME280;66129;45.890;13.714;2024-02-16T00:17:08;101640.97;;;4.42;100.00
77159;BME280;66129;45.890;13.714;2024-02-16T00:19:35;101648.50;;;4.40;100.00
77159;BME280;66129;45.890;13.714;2024-02-16T00:22:01;101633.09;;;4.37;100.00
77159;BME280;66129;45.890;13.714;2024-02-16T00:24:26;101642.63;;;4.41;100.00
77159;BME280;66129;45.890;13.714;2024-02-16T00:26:52;101630.09;;;4.30;100.00
77159;BME280;66129;45.890;13.714;2024-02-16T00:29:17;101627.31;;;4.26;100.00
77159;BME280;66129;45.890;13.714;2024-02-16T00:31:44;101623.88;;;4.25;100.00
77159;BME280;66129;45.890;13.714;2024-02-16T00:34:10;101623.88;;;4.25;100.00
77159;BME280;66129;45.890;13.714;2024-02-16T00:36:35;101624.25;;;4.31;100.00
77159;BME280;66129;45.890;13.714;2024-02-16T00:39:01;101629.44;;;4.33;100.00
77159;BME280;66129;45.890;13.714;2024-02-16T00:41:28;101632.41;;;4.26;100.00
77159;BME280;66129;45.890;13.714;2024-02-16T00:43:54;101624.84;;;4.27;100.00
77159;BME280;66129;45.890;13.714;2024-02-16T00:46:21;101643.59;;;4.29;100.00
77159;BME280;66129;45.890;13.714;2024-02-16T00:48:49;101637.97;;;4.20;100.00
77159;BME280;66129;45.890;13.714;2024-02-16T00:51:14;101624.84;;;4.13;100.00
77159;BME280;66129;45.890;13.714;2024-02-16T00:53:40;101632.19;;;4.08;100.00
77159;BME280;66129;45.890;13.714;2024-02-16T00:56:05;101630.97;;;4.02;100.00
77159;BME280;66129;45.890;13.714;2024-02-16T00:58:32;101637.16;;;4.07;100.00
77159;BME280;66129;45.890;13.714;2024-02-16T01:00:58;101635.25;;;4.03;100.00
77159;BME280;66129;45.890;13.714;2024-02-16T01:03:23;101630.00;;;4.00;100.00
77159;BME280;66129;45.890;13.714;2024-02-16T01:05:52;101626.09;;;4.05;100.00
77159;BME280;66129;45.890;13.714;2024-02-16T01:08:17;101623.06;;;3.97;100.00
77159;BME280;66129;45.890;13.714;2024-02-16T01:10:43;101618.97;;;3.99;100.00
77159;BME280;66129;45.890;13.714;2024-02-16T01:13:08;101613.28;;;4.03;100.00
77159;BME280;66129;45.890;13.714;2024-02-16T01:15:35;101621.09;;;4.06;100.00
77159;BME280;66129;45.890;13.714;2024-02-16T01:18:03;101634.31;;;4.15;100.00
77159;BME280;66129;45.890;13.714;2024-02-16T01:20:28;101634.81;;;4.10;100.00
77159;BME280;66129;45.890;13.714;2024-02-16T01:22:56;101621.78;;;3.89;100.00
77159;BME280;66129;45.890;13.714;2024-02-16T01:25:22;101626.31;;;3.95;100.00
77159;BME280;66129;45.890;13.714;2024-02-16T01:27:47;101620.28;;;3.93;100.00
77159;BME280;66129;45.890;13.714;2024-02-16T01:30:13;101630.22;;;3.90;100.00
77159;BME280;66129;45.890;13.714;2024-02-16T01:32:39;101630.31;;;3.91;100.00
77159;BME280;66129;45.890;13.714;2024-02-16T01:35:05;101635.38;;;3.91;100.00
77159;BME280;66129;45.890;13.714;2024-02-16T01:37:31;101628.13;;;3.83;100.00
77159;BME280;66129;45.890;13.714;2024-02-16T01:39:57;101625.84;;;3.73;100.00
77159;BME280;66129;45.890;13.714;2024-02-16T01:42:22;101621.53;;;3.72;100.00
77159;BME280;66129;45.890;13.714;2024-02-16T01:44:48;101609.81;;;3.59;100.00
77159;BME280;66129;45.890;13.714;2024-02-16T01:47:14;101624.69;;;3.68;100.00
77159;BME280;66129;45.890;13.714;2024-02-16T01:49:40;101614.25;;;3.63;100.00
77159;BME280;66129;45.890;13.714;2024-02-16T01:52:06;101602.34;;;3.62;100.00
77159;BME280;66129;45.890;13.714;2024-02-16T01:54:32;101615.50;;;3.70;100.00
77159;BME280;66129;45.890;13.714;2024-02-16T01:56:59;101605.38;;;3.70;100.00
77159;BME280;66129;45.890;13.714;2024-02-16T01:59:26;101616.22;;;3.82;100.00
77159;BME280;66129;45.890;13.714;2024-02-16T02:01:51;101610.28;;;3.81;100.00
77159;BME280;66129;45.890;13.714;2024-02-16T02:04:17;101594.28;;;3.82;100.00
77159;BME280;66129;45.890;13.714;2024-02-16T02:06:43;101598.47;;;3.82;100.00
77159;BME280;66129;45.890;13.714;2024-02-16T02:09:08;101578.88;;;3.65;100.00
77159;BME280;66129;45.890;13.714;2024-02-16T02:11:34;101578.94;;;3.66;100.00
77159;BME280;66129;45.890;13.714;2024-02-16T02:14:00;101592.88;;;3.73;100.00
77159;BME280;66129;45.890;13.714;2024-02-16T02:16:25;101596.88;;;3.69;100.00
77159;BME280;66129;45.890;13.714;2024-02-16T02:18:52;101583.78;;;3.49;100.00
77159;BME280;66129;45.890;13.714;2024-02-16T02:21:17;101584.56;;;3.48;100.00
77159;BME280;66129;45.890;13.714;2024-02-16T02:23:43;101593.06;;;3.48;100.00
77159;BME280;66129;45.890;13.714;2024-02-16T02:26:09;101593.31;;;3.53;100.00
77159;BME280;66129;45.890;13.714;2024-02-16T02:28:34;101579.63;;;3.49;100.00
77159;BME280;66129;45.890;13.714;2024-02-16T02:31:00;101578.81;;;3.50;100.00
77159;BME280;66129;45.890;13.714;2024-02-16T02:33:25;101577.47;;;3.42;100.00
77159;BME280;66129;45.890;13.714;2024-02-16T02:35:51;101585.88;;;3.41;100.00
77159;BME280;66129;45.890;13.714;2024-02-16T02:38:17;101594.25;;;3.40;100.00
77159;BME280;66129;45.890;13.714;2024-02-16T02:40:42;101581.97;;;3.33;100.00
77159;BME280;66129;45.890;13.714;2024-02-16T02:43:08;101577.28;;;3.39;100.00
77159;BME280;66129;45.890;13.714;2024-02-16T02:45:34;101578.25;;;3.41;100.00
77159;BME280;66129;45.890;13.714;2024-02-16T02:48:00;101571.91;;;3.48;100.00
77159;BME280;66129;45.890;13.714;2024-02-16T02:50:25;101554.31;;;3.36;100.00
77159;BME280;66129;45.890;13.714;2024-02-16T02:52:52;101562.00;;;3.38;100.00
77159;BME280;66129;45.890;13.714;2024-02-16T02:55:17;101560.06;;;3.34;100.00
77159;BME280;66129;45.890;13.714;2024-02-16T02:57:43;101568.34;;;3.31;100.00
77159;BME280;66129;45.890;13.714;2024-02-16T03:00:09;101558.16;;;3.17;100.00
77159;BME280;66129;45.890;13.714;2024-02-16T03:02:40;101563.75;;;3.12;100.00
77159;BME280;66129;45.890;13.714;2024-02-16T03:05:06;101575.72;;;3.14;100.00
77159;BME280;66129;45.890;13.714;2024-02-16T03:07:35;101551.28;;;3.02;100.00
77159;BME280;66129;45.890;13.714;2024-02-16T03:10:01;101565.69;;;3.16;100.00
77159;BME280;66129;45.890;13.714;2024-02-16T03:12:27;101568.03;;;3.13;100.00
77159;BME280;66129;45.890;13.714;2024-02-16T03:14:53;101561.59;;;3.05;100.00
77159;BME280;66129;45.890;13.714;2024-02-16T03:17:18;101546.34;;;2.90;100.00
77159;BME280;66129;45.890;13.714;2024-02-16T03:19:44;101556.66;;;2.93;100.00
77159;BME280;66129;45.890;13.714;2024-02-16T03:22:10;101571.53;;;3.02;100.00
77159;BME280;66129;45.890;13.714;2024-02-16T03:24:35;101550.25;;;2.85;100.00
77159;BME280;66129;45.890;13.714;2024-02-16T03:27:01;101568.47;;;2.93;100.00
77159;BME280;66129;45.890;13.714;2024-02-16T03:29:27;101568.28;;;2.77;100.00
77159;BME280;66129;45.890;13.714;2024-02-16T03:31:52;101560.50;;;2.61;100.00
77159;BME280;66129;45.890;13.714;2024-02-16T03:34:18;101571.28;;;2.58;100.00
77159;BME280;66129;45.890;13.714;2024-02-16T03:36:43;101559.91;;;2.52;100.00
77159;BME280;66129;45.890;13.714;2024-02-16T03:39:09;101571.41;;;2.60;100.00
77159;BME280;66129;45.890;13.714;2024-02-16T03:41:35;101562.84;;;2.58;100.00
77159;BME280;66129;45.890;13.714;2024-02-16T03:44:00;101567.53;;;2.65;100.00
77159;BME280;66129;45.890;13.714;2024-02-16T03:46:26;101580.34;;;2.81;100.00
77159;BME280;66129;45.890;13.714;2024-02-16T03:48:52;101568.00;;;2.72;100.00
77159;BME280;66129;45.890;13.714;2024-02-16T03:51:18;101565.75;;;2.77;100.00
77159;BME280;66129;45.890;13.714;2024-02-16T03:53:43;101558.56;;;2.70;100.00
77159;BME280;66129;45.890;13.714;2024-02-16T03:56:12;101567.31;;;2.62;100.00
77159;BME280;66129;45.890;13.714;2024-02-16T03:58:37;101580.38;;;2.68;100.00
77159;BME280;66129;45.890;13.714;2024-02-16T04:01:04;101565.28;;;2.69;100.00
77159;BME280;66129;45.890;13.714;2024-02-16T04:03:32;101563.63;;;2.70;100.00
77159;BME280;66129;45.890;13.714;2024-02-16T04:05:58;101556.69;;;2.67;100.00
77159;BME280;66129;45.890;13.714;2024-02-16T04:08:25;101561.09;;;2.70;100.00
77159;BME280;66129;45.890;13.714;2024-02-16T04:10:50;101557.75;;;2.71;100.00
77159;BME280;66129;45.890;13.714;2024-02-16T04:13:16;101568.06;;;2.74;100.00
77159;BME280;66129;45.890;13.714;2024-02-16T04:15:41;101562.25;;;2.62;100.00
77159;BME280;66129;45.890;13.714;2024-02-16T04:18:07;101574.72;;;2.59;100.00
77159;BME280;66129;45.890;13.714;2024-02-16T04:20:32;101551.94;;;2.46;100.00
77159;BME280;66129;45.890;13.714;2024-02-16T04:22:58;101557.38;;;2.52;100.00
77159;BME280;66129;45.890;13.714;2024-02-16T04:25:23;101547.66;;;2.45;100.00
77159;BME280;66129;45.890;13.714;2024-02-16T04:27:49;101560.13;;;2.55;100.00
77159;BME280;66129;45.890;13.714;2024-02-16T04:30:14;101566.94;;;2.56;100.00
77159;BME280;66129;45.890;13.714;2024-02-16T04:32:40;101561.19;;;2.45;100.00
77159;BME280;66129;45.890;13.714;2024-02-16T04:35:06;101557.00;;;2.46;100.00
77159;BME280;66129;45.890;13.714;2024-02-16T04:37:31;101559.91;;;2.52;100.00
77159;BME280;66129;45.890;13.714;2024-02-16T04:39:57;101551.47;;;2.38;100.00
77159;BME280;66129;45.890;13.714;2024-02-16T04:42:22;101553.97;;;2.25;100.00
77159;BME280;66129;45.890;13.714;2024-02-16T04:44:47;101560.41;;;2.20;100.00
77159;BME280;66129;45.890;13.714;2024-02-16T04:47:13;101543.16;;;2.15;100.00
77159;BME280;66129;45.890;13.714;2024-02-16T04:49:39;101564.47;;;2.18;100.00
77159;BME280;66129;45.890;13.714;2024-02-16T04:52:05;101556.22;;;2.08;100.00
77159;BME280;66129;45.890;13.714;2024-02-16T04:54:30;101548.63;;;2.08;100.00
77159;BME280;66129;45.890;13.714;2024-02-16T04:56:56;101549.97;;;2.03;100.00
77159;BME280;66129;45.890;13.714;2024-02-16T04:59:21;101540.72;;;2.04;100.00
77159;BME280;66129;45.890;13.714;2024-02-16T05:01:47;101544.44;;;2.09;100.00
77159;BME280;66129;45.890;13.714;2024-02-16T05:04:13;101547.53;;;2.05;100.00
77159;BME280;66129;45.890;13.714;2024-02-16T05:06:42;101558.13;;;2.12;100.00
77159;BME280;66129;45.890;13.714;2024-02-16T05:09:08;101544.63;;;2.12;100.00
77159;BME280;66129;45.890;13.714;2024-02-16T05:11:33;101558.66;;;2.19;100.00
77159;BME280;66129;45.890;13.714;2024-02-16T05:13:59;101557.19;;;2.23;100.00
77159;BME280;66129;45.890;13.714;2024-02-16T05:16:25;101564.47;;;2.31;100.00
77159;BME280;66129;45.890;13.714;2024-02-16T05:18:51;101545.59;;;2.26;100.00
77159;BME280;66129;45.890;13.714;2024-02-16T05:21:17;101559.63;;;2.21;100.00
77159;BME280;66129;45.890;13.714;2024-02-16T05:23:42;101553.47;;;2.18;100.00
77159;BME280;66129;45.890;13.714;2024-02-16T05:26:08;101543.16;;;2.15;100.00
77159;BME280;66129;45.890;13.714;2024-02-16T05:28:33;101555.16;;;2.17;100.00
77159;BME280;66129;45.890;13.714;2024-02-16T05:31:20;101560.59;;;2.23;100.00
77159;BME280;66129;45.890;13.714;2024-02-16T05:33:50;101570.03;;;2.26;100.00
77159;BME280;66129;45.890;13.714;2024-02-16T05:36:19;101565.47;;;2.20;100.00
77159;BME280;66129;45.890;13.714;2024-02-16T05:38:48;101562.31;;;2.12;100.00
77159;BME280;66129;45.890;13.714;2024-02-16T05:41:15;101574.28;;;2.14;100.00
77159;BME280;66129;45.890;13.714;2024-02-16T05:43:43;101564.56;;;2.07;100.00
77159;BME280;66129;45.890;13.714;2024-02-16T05:46:16;101576.44;;;2.08;100.00
77159;BME280;66129;45.890;13.714;2024-02-16T05:48:42;101579.91;;;1.97;100.00
77159;BME280;66129;45.890;13.714;2024-02-16T05:51:08;101578.22;;;1.85;100.00
77159;BME280;66129;45.890;13.714;2024-02-16T05:53:34;101566.56;;;1.87;100.00
77159;BME280;66129;45.890;13.714;2024-02-16T05:56:00;101577.25;;;1.96;100.00
77159;BME280;66129;45.890;13.714;2024-02-16T05:58:26;101577.25;;;1.96;100.00
77159;BME280;66129;45.890;13.714;2024-02-16T06:00:51;101580.97;;;2.01;100.00
77159;BME280;66129;45.890;13.714;2024-02-16T06:03:17;101581.53;;;1.97;100.00
77159;BME280;66129;45.890;13.714;2024-02-16T06:05:43;101592.63;;;1.99;100.00
77159;BME280;66129;45.890;13.714;2024-02-16T06:08:12;101587.19;;;1.93;100.00
77159;BME280;66129;45.890;13.714;2024-02-16T06:10:37;101576.53;;;1.85;100.00
77159;BME280;66129;45.890;13.714;2024-02-16T06:13:03;101581.59;;;1.85;100.00
77159;BME280;66129;45.890;13.714;2024-02-16T06:15:29;101586.97;;;1.90;100.00
77159;BME280;66129;45.890;13.714;2024-02-16T06:17:55;101591.56;;;1.95;100.00
77159;BME280;66129;45.890;13.714;2024-02-16T06:20:21;101582.50;;;1.86;100.00
77159;BME280;66129;45.890;13.714;2024-02-16T06:22:47;101591.25;;;1.91;100.00
77159;BME280;66129;45.890;13.714;2024-02-16T06:25:13;101585.78;;;1.85;100.00
77159;BME280;66129;45.890;13.714;2024-02-16T06:27:39;101606.63;;;1.94;100.00
77159;BME280;66129;45.890;13.714;2024-02-16T06:30:05;101601.03;;;1.86;100.00
77159;BME280;66129;45.890;13.714;2024-02-16T06:32:32;101595.75;;;1.70;100.00
77159;BME280;66129;45.890;13.714;2024-02-16T06:34:58;101596.31;;;1.66;100.00
77159;BME280;66129;45.890;13.714;2024-02-16T06:37:23;101609.16;;;1.69;100.00
77159;BME280;66129;45.890;13.714;2024-02-16T06:39:50;101620.91;;;1.69;100.00
77159;BME280;66129;45.890;13.714;2024-02-16T06:42:15;101610.34;;;1.74;100.00
77159;BME280;66129;45.890;13.714;2024-02-16T06:44:41;101627.22;;;1.87;100.00
77159;BME280;66129;45.890;13.714;2024-02-16T06:47:06;101611.34;;;1.76;100.00
77159;BME280;66129;45.890;13.714;2024-02-16T06:49:32;101626.09;;;1.83;100.00
77159;BME280;66129;45.890;13.714;2024-02-16T06:51:57;101622.03;;;1.85;100.00
77159;BME280;66129;45.890;13.714;2024-02-16T06:54:23;101627.41;;;1.90;100.00
77159;BME280;66129;45.890;13.714;2024-02-16T06:56:49;101638.72;;;1.95;100.00
77159;BME280;66129;45.890;13.714;2024-02-16T06:59:17;101632.50;;;2.03;100.00
77159;BME280;66129;45.890;13.714;2024-02-16T07:01:42;101633.91;;;2.11;100.00
77159;BME280;66129;45.890;13.714;2024-02-16T07:04:07;101644.72;;;2.21;100.00
77159;BME280;66129;45.890;13.714;2024-02-16T07:06:34;101652.03;;;2.29;100.00
77159;BME280;66129;45.890;13.714;2024-02-16T07:09:00;101639.00;;;2.36;100.00
77159;BME280;66129;45.890;13.714;2024-02-16T07:11:26;101638.16;;;2.36;100.00
77159;BME280;66129;45.890;13.714;2024-02-16T07:13:51;101645.44;;;2.44;100.00
77159;BME280;66129;45.890;13.714;2024-02-16T07:16:17;101648.88;;;2.58;100.00
77159;BME280;66129;45.890;13.714;2024-02-16T07:18:44;101655.97;;;2.63;100.00
77159;BME280;66129;45.890;13.714;2024-02-16T07:21:09;101643.63;;;2.68;100.00
77159;BME280;66129;45.890;13.714;2024-02-16T07:23:35;101638.69;;;2.82;100.00
77159;BME280;66129;45.890;13.714;2024-02-16T07:26:01;101643.91;;;2.98;100.00
77159;BME280;66129;45.890;13.714;2024-02-16T07:28:27;101655.09;;;3.15;100.00
77159;BME280;66129;45.890;13.714;2024-02-16T07:30:53;101653.22;;;3.65;100.00
77159;BME280;66129;45.890;13.714;2024-02-16T07:33:19;101649.09;;;4.65;100.00
77159;BME280;66129;45.890;13.714;2024-02-16T07:35:45;101640.63;;;5.56;100.00
77159;BME280;66129;45.890;13.714;2024-02-16T07:38:10;101653.59;;;6.40;100.00
77159;BME280;66129;45.890;13.714;2024-02-16T07:40:36;101639.31;;;6.77;100.00
77159;BME280;66129;45.890;13.714;2024-02-16T07:43:02;101650.66;;;7.36;100.00
77159;BME280;66129;45.890;13.714;2024-02-16T07:45:28;101651.66;;;7.94;100.00
77159;BME280;66129;45.890;13.714;2024-02-16T07:47:54;101646.88;;;8.40;100.00
77159;BME280;66129;45.890;13.714;2024-02-16T07:50:22;101648.69;;;8.63;100.00
77159;BME280;66129;45.890;13.714;2024-02-16T07:52:49;101646.81;;;8.99;100.00
77159;BME280;66129;45.890;13.714;2024-02-16T07:55:15;101643.69;;;9.50;100.00
77159;BME280;66129;45.890;13.714;2024-02-16T07:57:43;101653.75;;;9.68;100.00
77159;BME280;66129;45.890;13.714;2024-02-16T08:00:09;101639.78;;;9.82;100.00
77159;BME280;66129;45.890;13.714;2024-02-16T08:02:36;101645.03;;;9.85;100.00
77159;BME280;66129;45.890;13.714;2024-02-16T08:05:02;101630.56;;;10.08;100.00
77159;BME280;66129;45.890;13.714;2024-02-16T08:07:28;101634.06;;;10.35;100.00
77159;BME280;66129;45.890;13.714;2024-02-16T08:09:53;101630.75;;;10.89;100.00
77159;BME280;66129;45.890;13.714;2024-02-16T08:12:19;101634.44;;;11.23;97.32
77159;BME280;66129;45.890;13.714;2024-02-16T08:14:44;101630.84;;;11.46;92.91
77159;BME280;66129;45.890;13.714;2024-02-16T08:17:13;101630.59;;;11.11;90.61
77159;BME280;66129;45.890;13.714;2024-02-16T08:19:38;101634.28;;;11.19;87.56
77159;BME280;66129;45.890;13.714;2024-02-16T08:22:07;101639.06;;;11.92;95.33
77159;BME280;66129;45.890;13.714;2024-02-16T08:24:35;101644.41;;;12.00;84.84
77159;BME280;66129;45.890;13.714;2024-02-16T08:27:02;101642.22;;;11.82;85.79
77159;BME280;66129;45.890;13.714;2024-02-16T08:29:27;101648.06;;;12.08;84.92
77159;BME280;66129;45.890;13.714;2024-02-16T08:31:54;101643.28;;;12.21;81.53
77159;BME280;66129;45.890;13.714;2024-02-16T08:34:20;101627.06;;;12.54;79.56
77159;BME280;66129;45.890;13.714;2024-02-16T08:36:49;101634.41;;;12.73;79.34
77159;BME280;66129;45.890;13.714;2024-02-16T08:39:16;101632.50;;;13.00;76.22
77159;BME280;66129;45.890;13.714;2024-02-16T08:41:42;101640.91;;;13.67;76.04
77159;BME280;66129;45.890;13.714;2024-02-16T08:44:13;101633.50;;;13.43;71.78
77159;BME280;66129;45.890;13.714;2024-02-16T08:46:40;101634.97;;;13.71;70.92
77159;BME280;66129;45.890;13.714;2024-02-16T08:49:06;101648.63;;;13.67;70.43
77159;BME280;66129;45.890;13.714;2024-02-16T08:51:32;101629.97;;;14.20;70.80
77159;BME280;66129;45.890;13.714;2024-02-16T08:53:58;101634.03;;;14.09;69.34
77159;BME280;66129;45.890;13.714;2024-02-16T08:56:23;101632.53;;;14.18;70.35
77159;BME280;66129;45.890;13.714;2024-02-16T08:58:49;101632.56;;;14.67;66.53
77159;BME280;66129;45.890;13.714;2024-02-16T09:01:14;101639.38;;;14.63;67.85
77159;BME280;66129;45.890;13.714;2024-02-16T09:03:42;101625.50;;;15.09;64.37
77159;BME280;66129;45.890;13.714;2024-02-16T09:06:07;101619.81;;;15.29;64.06
77159;BME280;66129;45.890;13.714;2024-02-16T09:08:33;101640.94;;;15.07;66.04
77159;BME280;66129;45.890;13.714;2024-02-16T09:11:03;101639.69;;;14.81;68.30
77159;BME280;66129;45.890;13.714;2024-02-16T09:13:39;101642.94;;;14.70;66.49
77159;BME280;66129;45.890;13.714;2024-02-16T09:16:04;101630.81;;;14.64;64.65
77159;BME280;66129;45.890;13.714;2024-02-16T09:18:30;101650.63;;;15.20;61.76
77159;BME280;66129;45.890;13.714;2024-02-16T09:20:56;101638.94;;;15.43;58.66
77159;BME280;66129;45.890;13.714;2024-02-16T09:23:21;101628.44;;;15.98;54.50
77159;BME280;66129;45.890;13.714;2024-02-16T09:25:47;101632.00;;;16.06;54.92
77159;BME280;66129;45.890;13.714;2024-02-16T09:28:13;101627.66;;;16.03;55.67
77159;BME280;66129;45.890;13.714;2024-02-16T09:30:39;101630.22;;;16.00;55.53
77159;BME280;66129;45.890;13.714;2024-02-16T09:33:04;101632.88;;;16.97;55.14
77159;BME280;66129;45.890;13.714;2024-02-16T09:35:30;101636.63;;;16.34;54.85
77159;BME280;66129;45.890;13.714;2024-02-16T09:37:56;101636.03;;;16.62;56.27
77159;BME280;66129;45.890;13.714;2024-02-16T09:40:22;101628.00;;;17.36;55.98
77159;BME280;66129;45.890;13.714;2024-02-16T09:42:48;101634.81;;;17.22;54.56
77159;BME280;66129;45.890;13.714;2024-02-16T09:45:15;101630.69;;;17.57;53.75
77159;BME280;66129;45.890;13.714;2024-02-16T09:47:46;101624.72;;;17.65;54.41
77159;BME280;66129;45.890;13.714;2024-02-16T09:50:12;101639.56;;;18.08;52.29
77159;BME280;66129;45.890;13.714;2024-02-16T09:52:39;101636.84;;;17.75;54.54
77159;BME280;66129;45.890;13.714;2024-02-16T09:55:07;101632.59;;;17.92;53.29
77159;BME280;66129;45.890;13.714;2024-02-16T09:57:35;101638.69;;;17.97;53.49
77159;BME280;66129;45.890;13.714;2024-02-16T10:00:02;101645.44;;;17.62;53.87
77159;BME280;66129;45.890;13.714;2024-02-16T10:02:45;101648.16;;;17.89;53.77
77159;BME280;66129;45.890;13.714;2024-02-16T10:05:15;101643.84;;;17.92;52.03
77159;BME280;66129;45.890;13.714;2024-02-16T10:07:42;101639.47;;;17.80;51.68
77159;BME280;66129;45.890;13.714;2024-02-16T10:10:21;101646.50;;;18.10;51.82
77159;BME280;66129;45.890;13.714;2024-02-16T10:12:50;101635.28;;;18.16;48.53
77159;BME280;66129;45.890;13.714;2024-02-16T10:15:21;101634.44;;;18.20;47.48
77159;BME280;66129;45.890;13.714;2024-02-16T10:17:59;101634.41;;;18.17;47.93
77159;BME280;66129;45.890;13.714;2024-02-16T10:20:25;101637.00;;;18.09;46.02
77159;BME280;66129;45.890;13.714;2024-02-16T10:23:02;101617.97;;;18.15;48.11
77159;BME280;66129;45.890;13.714;2024-02-16T10:25:28;101603.28;;;18.17;47.42
77159;BME280;66129;45.890;13.714;2024-02-16T10:27:54;101620.66;;;18.34;46.22
77159;BME280;66129;45.890;13.714;2024-02-16T10:30:21;101612.78;;;18.22;45.98
77159;BME280;66129;45.890;13.714;2024-02-16T10:32:47;101628.34;;;18.07;46.26
77159;BME280;66129;45.890;13.714;2024-02-16T10:35:13;101628.41;;;18.36;46.75
77159;BME280;66129;45.890;13.714;2024-02-16T10:37:40;101599.84;;;18.28;44.49
77159;BME280;66129;45.890;13.714;2024-02-16T10:40:07;101610.25;;;18.27;44.66
77159;BME280;66129;45.890;13.714;2024-02-16T10:42:36;101616.34;;;18.54;45.13
77159;BME280;66129;45.890;13.714;2024-02-16T10:45:03;101604.19;;;18.25;42.83
77159;BME280;66129;45.890;13.714;2024-02-16T10:47:29;101612.88;;;18.40;42.93
77159;BME280;66129;45.890;13.714;2024-02-16T10:49:55;101606.81;;;18.52;43.91
77159;BME280;66129;45.890;13.714;2024-02-16T10:52:20;101596.44;;;18.59;42.42
77159;BME280;66129;45.890;13.714;2024-02-16T10:54:47;101598.16;;;18.66;43.14
77159;BME280;66129;45.890;13.714;2024-02-16T10:57:12;101604.22;;;18.89;42.09
77159;BME280;66129;45.890;13.714;2024-02-16T10:59:41;101606.78;;;19.05;43.79
77159;BME280;66129;45.890;13.714;2024-02-16T11:02:11;101607.69;;;18.97;42.60
77159;BME280;66129;45.890;13.714;2024-02-16T11:04:38;101596.41;;;18.97;43.43
77159;BME280;66129;45.890;13.714;2024-02-16T11:07:11;101606.78;;;19.10;42.83
77159;BME280;66129;45.890;13.714;2024-02-16T11:09:39;101589.47;;;18.93;44.42
77159;BME280;66129;45.890;13.714;2024-02-16T11:12:06;101590.34;;;19.06;42.74
77159;BME280;66129;45.890;13.714;2024-02-16T11:14:44;101586.00;;;19.08;43.63
77159;BME280;66129;45.890;13.714;2024-02-16T11:17:15;101588.59;;;19.25;43.21
77159;BME280;66129;45.890;13.714;2024-02-16T11:19:46;101568.66;;;19.10;42.22
77159;BME280;66129;45.890;13.714;2024-02-16T11:22:18;101589.50;;;19.16;43.46
77159;BME280;66129;45.890;13.714;2024-02-16T11:24:53;101575.59;;;19.22;41.62
77159;BME280;66129;45.890;13.714;2024-02-16T11:27:19;101575.59;;;19.26;42.61
77159;BME280;66129;45.890;13.714;2024-02-16T11:29:46;101565.22;;;19.08;41.36
77159;BME280;66129;45.890;13.714;2024-02-16T11:32:11;101586.03;;;18.83;41.96
77159;BME280;66129;45.890;13.714;2024-02-16T11:34:37;101566.13;;;18.72;41.90
77159;BME280;66129;45.890;13.714;2024-02-16T11:37:06;101566.94;;;19.06;42.34
77159;BME280;66129;45.890;13.714;2024-02-16T11:39:31;101556.53;;;19.24;42.10
77159;BME280;66129;45.890;13.714;2024-02-16T11:44:32;101553.06;;;19.10;42.71
77159;BME280;66129;45.890;13.714;2024-02-16T11:46:59;101566.09;;;19.00;43.59
77159;BME280;66129;45.890;13.714;2024-02-16T11:49:25;101558.28;;;19.10;45.30
77159;BME280;66129;45.890;13.714;2024-02-16T11:51:51;101568.69;;;19.01;43.88
77159;BME280;66129;45.890;13.714;2024-02-16T11:54:17;101551.34;;;18.95;43.03
77159;BME280;66129;45.890;13.714;2024-02-16T11:56:46;101560.91;;;18.91;42.79
77159;BME280;66129;45.890;13.714;2024-02-16T11:59:15;101558.25;;;19.06;43.09
77159;BME280;66129;45.890;13.714;2024-02-16T12:01:54;101542.75;;;18.87;44.56
77159;BME280;66129;45.890;13.714;2024-02-16T12:07:01;101535.75;;;18.98;42.83
77159;BME280;66129;45.890;13.714;2024-02-16T12:09:27;101540.09;;;18.93;42.19
77159;BME280;66129;45.890;13.714;2024-02-16T12:11:53;101545.31;;;18.97;44.39
77159;BME280;66129;45.890;13.714;2024-02-16T12:14:22;101527.94;;;19.11;44.20
77159;BME280;66129;45.890;13.714;2024-02-16T12:16:51;101541.81;;;19.25;44.20
77159;BME280;66129;45.890;13.714;2024-02-16T12:19:21;101541.84;;;19.17;44.36
77159;BME280;66129;45.890;13.714;2024-02-16T12:21:55;101518.41;;;19.10;45.15
77159;BME280;66129;45.890;13.714;2024-02-16T12:24:22;101533.16;;;18.92;47.61
77159;BME280;66129;45.890;13.714;2024-02-16T12:26:48;101534.94;;;18.84;46.43
77159;BME280;66129;45.890;13.714;2024-02-16T12:29:14;101538.38;;;19.18;46.56
77159;BME280;66129;45.890;13.714;2024-02-16T12:31:40;101532.28;;;19.04;45.08
77159;BME280;66129;45.890;13.714;2024-02-16T12:34:06;101511.50;;;19.10;45.18
77159;BME280;66129;45.890;13.714;2024-02-16T12:36:34;101522.75;;;19.17;44.31
77159;BME280;66129;45.890;13.714;2024-02-16T12:39:00;101513.22;;;19.08;44.96
77159;BME280;66129;45.890;13.714;2024-02-16T12:41:25;101510.69;;;18.89;45.75